Gordon V.sr. — WDB8505 — position and weather

sailwx.info

Track history (hours):
 
Tides and Currents Weather Stations Pressure Air Temp Water Temp Dewpoint Dewpoint Depression Visibility Wind Speed Wind Dir Waves Ship Positions

Gordon V.sr.

More information available from US FCC via Universal Licensing System and Coast Guard Vessel Documentation Center.

Last reported at 2014-Jun-28 03:25 UTC. Time now 2014-Jul-26 13:14 UTC.
Position N 29°59' W 090°01'.
Warning: this ship's position is 28 days out of date.

MMSI: 365910942.

Date/timePositionNaut miles runAvg speedWind from/ knotsBaromVisibWave heightAir tempDewpointWater temp
2014-Jun-28 03:25N 29°59' W 090°01'1 1.5
2014-Jun-28 02:27N 29°58' W 090°02'0 0.0
2014-Jun-27 08:17N 29°57' W 090°02'26 2.0
2014-Jun-26 19:33N 30°03' W 090°31'26 2.5
2014-Jun-26 09:18N 30°07' W 091°01'19 1.4
2014-Jun-25 19:33N 29°50' W 091°11'6 6.2
2014-Jun-25 18:33N 29°44' W 091°11'3 2.9
2014-Jun-25 17:33N 29°41' W 091°10'4 3.8
2014-Jun-25 16:33N 29°38' W 091°07'2 0.1
2014-Jun-25 01:33N 29°40' W 091°06'4 3.9
2014-Jun-25 00:33N 29°41' W 091°10'3 2.9
2014-Jun-24 23:33N 29°41' W 091°14'3 3.0
2014-Jun-24 22:33N 29°41' W 091°10'2 2.0
2014-Jun-24 21:33N 29°40' W 091°08'5 4.6
2014-Jun-24 20:33N 29°37' W 091°04'4 4.2
2014-Jun-24 19:32N 29°37' W 090°59'17 3.4
2014-Jun-24 14:33N 29°36' W 090°40'5 4.8
2014-Jun-24 13:33N 29°34' W 090°35'5 5.0
2014-Jun-24 12:33N 29°34' W 090°29'5 4.4
2014-Jun-24 11:32N 29°33' W 090°24'4 3.6
2014-Jun-24 10:33N 29°36' W 090°22'0 0.0
2014-Jun-24 09:33N 29°36' W 090°22'20 1.8
2014-Jun-23 22:33N 29°56' W 090°21'14 7.0
2014-Jun-23 20:33N 30°03' W 090°35'  
2014-Jun-21 11:20N 30°07' W 090°55'4 3.4
2014-Jun-21 10:18N 30°04' W 090°53'4 3.0
2014-Jun-21 09:07N 30°01' W 090°50'3 4.7
2014-Jun-21 08:33N 29°59' W 090°49'5 4.7
2014-Jun-21 07:32N 30°01' W 090°44'5 4.7
2014-Jun-21 06:33N 30°03' W 090°39'4 4.3
2014-Jun-21 05:33N 30°03' W 090°34'5 4.5
2014-Jun-21 04:33N 30°03' W 090°29'4 4.2
2014-Jun-21 03:33N 29°60' W 090°26'3 3.1
2014-Jun-21 02:33N 29°58' W 090°24'0 0.2
2014-Jun-21 01:33N 29°57' W 090°23'0 0.0
2014-Jun-21 00:32N 29°57' W 090°23'5 0.2
2014-Jun-19 22:09N 30°01' W 090°28'4 6.7
2014-Jun-19 21:33N 30°03' W 090°32'  
Track history (hours):
 
Tides and Currents Weather Stations Pressure Air Temp Water Temp Dewpoint Dewpoint Depression Visibility Wind Speed Wind Dir Waves Ship Positions

Gordon V.sr.

More information available from US FCC via Universal Licensing System and Coast Guard Vessel Documentation Center.

Last reported at 2014-Jun-28 03:25 UTC. Time now 2014-Jul-26 13:14 UTC.
Position N 29°59' W 090°01'.
Warning: this ship's position is 28 days out of date.

MMSI: 365910942.

Date/timePositionNaut miles runAvg speedWind from/ knotsBaromVisibWave heightAir tempDewpointWater temp
2014-Jun-28 03:25N 29°59' W 090°01'1 1.5
2014-Jun-28 02:27N 29°58' W 090°02'0 0.0
2014-Jun-27 08:17N 29°57' W 090°02'26 2.0
2014-Jun-26 19:33N 30°03' W 090°31'26 2.5
2014-Jun-26 09:18N 30°07' W 091°01'19 1.4
2014-Jun-25 19:33N 29°50' W 091°11'6 6.2
2014-Jun-25 18:33N 29°44' W 091°11'3 2.9
2014-Jun-25 17:33N 29°41' W 091°10'4 3.8
2014-Jun-25 16:33N 29°38' W 091°07'2 0.1
2014-Jun-25 01:33N 29°40' W 091°06'4 3.9
2014-Jun-25 00:33N 29°41' W 091°10'3 2.9
2014-Jun-24 23:33N 29°41' W 091°14'3 3.0
2014-Jun-24 22:33N 29°41' W 091°10'2 2.0
2014-Jun-24 21:33N 29°40' W 091°08'5 4.6
2014-Jun-24 20:33N 29°37' W 091°04'4 4.2
2014-Jun-24 19:32N 29°37' W 090°59'17 3.4
2014-Jun-24 14:33N 29°36' W 090°40'5 4.8
2014-Jun-24 13:33N 29°34' W 090°35'5 5.0
2014-Jun-24 12:33N 29°34' W 090°29'5 4.4
2014-Jun-24 11:32N 29°33' W 090°24'4 3.6
2014-Jun-24 10:33N 29°36' W 090°22'0 0.0
2014-Jun-24 09:33N 29°36' W 090°22'20 1.8
2014-Jun-23 22:33N 29°56' W 090°21'14 7.0
2014-Jun-23 20:33N 30°03' W 090°35'  
2014-Jun-21 11:20N 30°07' W 090°55'4 3.4
2014-Jun-21 10:18N 30°04' W 090°53'4 3.0
2014-Jun-21 09:07N 30°01' W 090°50'3 4.7
2014-Jun-21 08:33N 29°59' W 090°49'5 4.7
2014-Jun-21 07:32N 30°01' W 090°44'5 4.7
2014-Jun-21 06:33N 30°03' W 090°39'4 4.3
2014-Jun-21 05:33N 30°03' W 090°34'5 4.5
2014-Jun-21 04:33N 30°03' W 090°29'4 4.2
2014-Jun-21 03:33N 29°60' W 090°26'3 3.1
2014-Jun-21 02:33N 29°58' W 090°24'0 0.2
2014-Jun-21 01:33N 29°57' W 090°23'0 0.0
2014-Jun-21 00:32N 29°57' W 090°23'5 0.2
2014-Jun-19 22:09N 30°01' W 090°28'4 6.7
2014-Jun-19 21:33N 30°03' W 090°32'  

Dump ship's entire track history